KZR992 UACC-UAAA
Flight info
| Callsign | KZR992 |
|---|---|
| Flight time | N/A |
| Altitude | 37000 |
| Route | BANOS W333 ETEDA ETEDA1Z |
| Aircraft | A21N/M-SDE3FGHIRWY/LB1 |
Departure
| Time | N/A |
|---|---|
| Airport | Nursultan Nazarbayev International Airport (UACC) |
Arrival
| Time | 2026-05-04 19:00 |
|---|---|
| Airport | Almaty International Airport (UAAA) |
| Time | Latitude | Longitude | Altitude | Speed | Heading |
|---|---|---|---|---|---|
| 2026-05-04 18:53 | 43.58061 | 77.32079 | 7640 ft | 275 kts | 143° |
| 2026-05-04 18:53 | 43.56502 | 77.33549 | 7327 ft | 273 kts | 143° |
| 2026-05-04 18:53 | 43.54943 | 77.35017 | 7012 ft | 270 kts | 144° |
| 2026-05-04 18:54 | 43.53245 | 77.36129 | 6697 ft | 270 kts | 171° |
| 2026-05-04 18:54 | 43.51437 | 77.35832 | 6391 ft | 267 kts | 206° |
| 2026-05-04 18:54 | 43.50045 | 77.34219 | 6064 ft | 262 kts | 237° |
| 2026-05-04 18:54 | 43.49098 | 77.32085 | 5772 ft | 261 kts | 240° |
| 2026-05-04 18:55 | 43.48168 | 77.29967 | 5486 ft | 260 kts | 239° |
| 2026-05-04 18:55 | 43.46158 | 77.25887 | 5268 ft | 249 kts | 234° |
| 2026-05-04 18:55 | 43.45179 | 77.24004 | 5177 ft | 239 kts | 235° |
| 2026-05-04 18:56 | 43.44241 | 77.22152 | 4947 ft | 233 kts | 236° |
| 2026-05-04 18:56 | 43.43346 | 77.20354 | 4679 ft | 226 kts | 236° |
| 2026-05-04 18:56 | 43.42461 | 77.18565 | 4350 ft | 222 kts | 236° |
| 2026-05-04 18:56 | 43.41612 | 77.16850 | 4045 ft | 217 kts | 236° |
| 2026-05-04 18:57 | 43.40789 | 77.15190 | 3753 ft | 203 kts | 236° |
| 2026-05-04 18:57 | 43.40031 | 77.13663 | 3529 ft | 184 kts | 236° |
| 2026-05-04 18:57 | 43.39334 | 77.12256 | 3271 ft | 168 kts | 235° |
| 2026-05-04 18:57 | 43.38707 | 77.10992 | 3052 ft | 156 kts | 235° |
| 2026-05-04 18:58 | 43.38105 | 77.09779 | 2871 ft | 154 kts | 235° |
| 2026-05-04 18:58 | 43.37502 | 77.08564 | 2677 ft | 152 kts | 235° |
| 2026-05-04 18:58 | 43.36908 | 77.07368 | 2479 ft | 151 kts | 235° |
| 2026-05-04 18:58 | 43.36324 | 77.06188 | 2279 ft | 149 kts | 235° |
| 2026-05-04 18:59 | 43.35797 | 77.05112 | 2245 ft | 114 kts | 236° |
| 2026-05-04 18:59 | 43.35440 | 77.04404 | 2245 ft | 64 kts | 236° |
| 2026-05-04 18:59 | 43.35209 | 77.03938 | 2245 ft | 56 kts | 236° |
| 2026-05-04 18:59 | 43.34999 | 77.03514 | 2245 ft | 50 kts | 236° |
| 2026-05-04 19:00 | 43.34848 | 77.03201 | 2244 ft | 26 kts | 240° |
| 2026-05-04 19:00 | 43.34792 | 77.02991 | 2244 ft | 22 kts | 259° |
| 2026-05-04 19:00 | 43.34780 | 77.02799 | 2244 ft | 19 kts | 269° |
| 2026-05-04 19:00 | 43.34774 | 77.02626 | 2244 ft | 18 kts | 264° |
| 2026-05-04 19:01 | 43.34775 | 77.02451 | 2244 ft | 18 kts | 274° |
| 2026-05-04 19:01 | 43.34784 | 77.02277 | 2244 ft | 17 kts | 274° |
| 2026-05-04 19:01 | 43.34790 | 77.02110 | 2244 ft | 17 kts | 273° |
| 2026-05-04 19:01 | 43.34798 | 77.01945 | 2244 ft | 17 kts | 274° |
| 2026-05-04 19:02 | 43.34806 | 77.01784 | 2244 ft | 16 kts | 274° |
| 2026-05-04 19:02 | 43.34814 | 77.01629 | 2244 ft | 15 kts | 274° |
| 2026-05-04 19:02 | 43.34817 | 77.01511 | 2244 ft | 11 kts | 263° |
| 2026-05-04 19:02 | 43.34783 | 77.01409 | 2243 ft | 11 kts | 218° |
| 2026-05-04 19:03 | 43.34721 | 77.01392 | 2243 ft | 8 kts | 208° |
| 2026-05-04 19:03 | 43.34689 | 77.01335 | 2243 ft | 3 kts | 242° |
| 2026-05-04 19:03 | 43.34685 | 77.01324 | 2243 ft | 0 kts | 243° |
| 2026-05-04 19:03 | 43.34685 | 77.01323 | 2243 ft | 0 kts | 243° |